Thomaston, New York
Current Conditions -  °F | °C
As of 3:51 AM on Monday 20 Oct 2014 (Local Time) from KLGA Reporting Station
Broken Clouds Broken Clouds  
Wind Chill:   Ceiling: 22000
Heat Index:   Visibility: 10mi
Dew Point: -2°   Wind: 9mph
Humidity: 55%   Direction: 290°WNW
Pressure: 30.08"   Gusts: NA
Location:  40.786°N, 73.7291°W
Report Text: KLGA 200751Z 29008KT 10SM BKN220 07/M02 A3008 RMK AO2 SLP184 T00671017
Loading
Personal Weather Stations






























Interactive Weather Map
Tropical Storm Tracking
New forecast layout! Learn more

10-Day Weather Forecast

Advertisements
Track Severe Weather on mobile